Exeter, Canada
Current Conditions -  °F | °C
As of 8:00 PM on Tuesday 21 Oct 2014 (Local Time) from CYXU Reporting Station
Overcast Overcast  
Wind Chill: 39°   Ceiling: 1600
Heat Index: 45°   Visibility: 15mi
Dew Point: 41°   Wind: 10mph
Humidity: 87%   Direction: 10°N
Pressure: 30.08"   Gusts: NA
Location:  43.35°N, 81.48°W
Report Text: CYXU 220000Z 01009KT 15SM OVC016 07/05 A3008 RMK SC8 SLP193
Loading
Personal Weather Stations






























Interactive Weather Map
Tropical Storm Tracking
New forecast layout! Learn more

10-Day Weather Forecast

Advertisements
Track Severe Weather on mobile